sensor_id;sensor_type;location;lat;lon;timestamp;pressure;altitude;pressure_sealevel;temperature;humidity
57192;BME280;43052;52.588;13.396;2022-10-15T00:00:20;100480.78;;;13.80;71.39
57192;BME280;43052;52.588;13.396;2022-10-15T00:02:45;100474.66;;;13.79;71.95
57192;BME280;43052;52.588;13.396;2022-10-15T00:05:11;100462.47;;;13.77;71.88
57192;BME280;43052;52.588;13.396;2022-10-15T00:07:36;100460.56;;;13.84;71.80
57192;BME280;43052;52.588;13.396;2022-10-15T00:10:01;100464.03;;;13.86;71.90
57192;BME280;43052;52.588;13.396;2022-10-15T00:12:27;100455.31;;;13.84;71.80
57192;BME280;43052;52.588;13.396;2022-10-15T00:14:52;100453.50;;;13.86;72.14
57192;BME280;43052;52.588;13.396;2022-10-15T00:17:18;100455.19;;;13.88;72.16
57192;BME280;43052;52.588;13.396;2022-10-15T00:19:43;100454.28;;;13.89;72.25
57192;BME280;43052;52.588;13.396;2022-10-15T00:22:08;100452.53;;;13.90;72.55
57192;BME280;43052;52.588;13.396;2022-10-15T00:24:35;100442.94;;;13.87;73.34
57192;BME280;43052;52.588;13.396;2022-10-15T00:27:00;100443.94;;;13.83;73.59
57192;BME280;43052;52.588;13.396;2022-10-15T00:29:25;100438.78;;;13.78;73.53
57192;BME280;43052;52.588;13.396;2022-10-15T00:31:51;100449.22;;;13.82;74.32
57192;BME280;43052;52.588;13.396;2022-10-15T00:34:16;100441.44;;;13.78;74.48
57192;BME280;43052;52.588;13.396;2022-10-15T00:36:41;100446.69;;;13.77;75.14
57192;BME280;43052;52.588;13.396;2022-10-15T00:39:06;100444.19;;;13.72;76.16
57192;BME280;43052;52.588;13.396;2022-10-15T00:41:35;100437.38;;;13.63;76.84
57192;BME280;43052;52.588;13.396;2022-10-15T00:46:45;100435.69;;;13.61;76.93
57192;BME280;43052;52.588;13.396;2022-10-15T00:49:17;100436.50;;;13.63;76.94
57192;BME280;43052;52.588;13.396;2022-10-15T00:51:48;100442.66;;;13.63;77.06
57192;BME280;43052;52.588;13.396;2022-10-15T00:54:18;100433.88;;;13.63;77.10
57192;BME280;43052;52.588;13.396;2022-10-15T00:56:44;100428.78;;;13.57;77.21
57192;BME280;43052;52.588;13.396;2022-10-15T00:59:11;100424.34;;;13.59;77.46
57192;BME280;43052;52.588;13.396;2022-10-15T01:01:37;100413.00;;;13.57;77.45
57192;BME280;43052;52.588;13.396;2022-10-15T01:04:03;100417.25;;;13.62;77.47
57192;BME280;43052;52.588;13.396;2022-10-15T01:06:30;100412.06;;;13.59;77.69
57192;BME280;43052;52.588;13.396;2022-10-15T01:08:55;100410.38;;;13.57;77.75
57192;BME280;43052;52.588;13.396;2022-10-15T01:11:49;100399.94;;;13.54;78.15
57192;BME280;43052;52.588;13.396;2022-10-15T01:14:35;100387.06;;;13.43;77.98
57192;BME280;43052;52.588;13.396;2022-10-15T01:17:10;100392.22;;;13.47;78.13
57192;BME280;43052;52.588;13.396;2022-10-15T01:20:09;100386.28;;;13.38;78.87
57192;BME280;43052;52.588;13.396;2022-10-15T01:25:41;100388.94;;;13.36;78.73
57192;BME280;43052;52.588;13.396;2022-10-15T01:28:28;100384.50;;;13.41;78.51
57192;BME280;43052;52.588;13.396;2022-10-15T01:31:05;100384.50;;;13.41;78.70
57192;BME280;43052;52.588;13.396;2022-10-15T01:33:44;100376.75;;;13.33;78.86
57192;BME280;43052;52.588;13.396;2022-10-15T01:36:17;100379.25;;;13.38;78.89
57192;BME280;43052;52.588;13.396;2022-10-15T01:38:49;100379.13;;;13.44;78.71
57192;BME280;43052;52.588;13.396;2022-10-15T01:41:24;100379.97;;;13.46;78.53
57192;BME280;43052;52.588;13.396;2022-10-15T01:44:04;100374.72;;;13.48;78.65
57192;BME280;43052;52.588;13.396;2022-10-15T01:46:37;100372.00;;;13.51;78.37
57192;BME280;43052;52.588;13.396;2022-10-15T01:49:04;100365.88;;;13.51;78.89
57192;BME280;43052;52.588;13.396;2022-10-15T01:51:33;100369.34;;;13.53;78.87
57192;BME280;43052;52.588;13.396;2022-10-15T01:54:00;100365.06;;;13.48;78.86
57192;BME280;43052;52.588;13.396;2022-10-15T01:56:27;100367.63;;;13.52;79.35
57192;BME280;43052;52.588;13.396;2022-10-15T01:58:54;100371.13;;;13.51;79.53
57192;BME280;43052;52.588;13.396;2022-10-15T02:01:20;100359.75;;;13.52;79.36
57192;BME280;43052;52.588;13.396;2022-10-15T02:03:50;100360.44;;;13.58;79.17
57192;BME280;43052;52.588;13.396;2022-10-15T02:06:31;100359.56;;;13.58;79.36
57192;BME280;43052;52.588;13.396;2022-10-15T02:12:29;100357.00;;;13.56;79.38
57192;BME280;43052;52.588;13.396;2022-10-15T02:15:02;100348.22;;;13.57;79.69
57192;BME280;43052;52.588;13.396;2022-10-15T02:17:36;100331.63;;;13.55;79.35
57192;BME280;43052;52.588;13.396;2022-10-15T02:20:18;100345.53;;;13.59;79.71
57192;BME280;43052;52.588;13.396;2022-10-15T02:22:54;100340.44;;;13.53;79.95
57192;BME280;43052;52.588;13.396;2022-10-15T02:25:22;100343.09;;;13.51;80.00
57192;BME280;43052;52.588;13.396;2022-10-15T02:27:50;100343.03;;;13.54;79.64
57192;BME280;43052;52.588;13.396;2022-10-15T02:30:17;100336.75;;;13.60;79.49
57192;BME280;43052;52.588;13.396;2022-10-15T02:32:44;100340.28;;;13.59;79.52
57192;BME280;43052;52.588;13.396;2022-10-15T02:35:12;100335.75;;;13.66;79.45
57192;BME280;43052;52.588;13.396;2022-10-15T02:37:42;100341.75;;;13.71;79.25
57192;BME280;43052;52.588;13.396;2022-10-15T02:40:08;100333.91;;;13.69;79.40
57192;BME280;43052;52.588;13.396;2022-10-15T02:42:34;100342.47;;;13.77;79.06
57192;BME280;43052;52.588;13.396;2022-10-15T02:44:59;100335.47;;;13.76;79.08
57192;BME280;43052;52.588;13.396;2022-10-15T02:47:24;100327.50;;;13.79;78.94
57192;BME280;43052;52.588;13.396;2022-10-15T02:49:49;100330.94;;;13.82;79.05
57192;BME280;43052;52.588;13.396;2022-10-15T02:52:15;100314.41;;;13.78;79.14
57192;BME280;43052;52.588;13.396;2022-10-15T02:54:40;100324.84;;;13.81;78.88
57192;BME280;43052;52.588;13.396;2022-10-15T02:57:05;100328.31;;;13.82;78.97
57192;BME280;43052;52.588;13.396;2022-10-15T02:59:30;100317.81;;;13.82;79.15
57192;BME280;43052;52.588;13.396;2022-10-15T03:01:56;100318.84;;;13.76;79.30
57192;BME280;43052;52.588;13.396;2022-10-15T03:04:21;100303.28;;;13.68;79.16
57192;BME280;43052;52.588;13.396;2022-10-15T03:06:46;100319.72;;;13.76;79.33
57192;BME280;43052;52.588;13.396;2022-10-15T03:09:11;100313.69;;;13.71;79.31
57192;BME280;43052;52.588;13.396;2022-10-15T03:11:38;100317.25;;;13.70;79.61
57192;BME280;43052;52.588;13.396;2022-10-15T03:14:03;100318.03;;;13.72;79.36
57192;BME280;43052;52.588;13.396;2022-10-15T03:16:28;100319.91;;;13.69;79.31
57192;BME280;43052;52.588;13.396;2022-10-15T03:18:54;100326.94;;;13.67;79.28
57192;BME280;43052;52.588;13.396;2022-10-15T03:21:19;100323.41;;;13.68;79.44
57192;BME280;43052;52.588;13.396;2022-10-15T03:23:44;100311.28;;;13.63;79.43
57192;BME280;43052;52.588;13.396;2022-10-15T03:26:10;100320.78;;;13.69;79.23
57192;BME280;43052;52.588;13.396;2022-10-15T03:28:35;100312.97;;;13.66;79.42
57192;BME280;43052;52.588;13.396;2022-10-15T03:31:00;100302.63;;;13.58;79.51
57192;BME280;43052;52.588;13.396;2022-10-15T03:33:25;100301.78;;;13.58;79.24
57192;BME280;43052;52.588;13.396;2022-10-15T03:35:51;100289.03;;;13.42;79.40
57192;BME280;43052;52.588;13.396;2022-10-15T03:38:17;100285.66;;;13.36;79.70
57192;BME280;43052;52.588;13.396;2022-10-15T03:40:43;100294.28;;;13.42;79.55
57192;BME280;43052;52.588;13.396;2022-10-15T03:43:09;100298.72;;;13.40;79.84
57192;BME280;43052;52.588;13.396;2022-10-15T03:45:34;100300.50;;;13.40;80.02
57192;BME280;43052;52.588;13.396;2022-10-15T03:47:59;100303.03;;;13.43;79.97
57192;BME280;43052;52.588;13.396;2022-10-15T03:50:24;100300.28;;;13.47;79.92
57192;BME280;43052;52.588;13.396;2022-10-15T03:52:50;100306.31;;;13.53;79.94
57192;BME280;43052;52.588;13.396;2022-10-15T03:55:15;100302.63;;;13.60;79.82
57192;BME280;43052;52.588;13.396;2022-10-15T03:57:40;100302.50;;;13.63;79.47
57192;BME280;43052;52.588;13.396;2022-10-15T04:00:07;100294.50;;;13.68;79.63
57192;BME280;43052;52.588;13.396;2022-10-15T04:02:32;100296.25;;;13.69;79.42
57192;BME280;43052;52.588;13.396;2022-10-15T04:04:58;100290.94;;;13.72;79.67
57192;BME280;43052;52.588;13.396;2022-10-15T04:07:23;100300.47;;;13.74;79.60
57192;BME280;43052;52.588;13.396;2022-10-15T04:09:48;100296.13;;;13.73;79.61
57192;BME280;43052;52.588;13.396;2022-10-15T04:12:14;100300.53;;;13.73;79.61
57192;BME280;43052;52.588;13.396;2022-10-15T04:14:39;100303.16;;;13.73;79.50
57192;BME280;43052;52.588;13.396;2022-10-15T04:17:05;100298.03;;;13.68;79.81
57192;BME280;43052;52.588;13.396;2022-10-15T04:19:30;100311.03;;;13.73;79.71
57192;BME280;43052;52.588;13.396;2022-10-15T04:21:55;100312.00;;;13.70;79.77
57192;BME280;43052;52.588;13.396;2022-10-15T04:24:21;100310.25;;;13.69;79.80
57192;BME280;43052;52.588;13.396;2022-10-15T04:26:46;100315.47;;;13.71;79.55
57192;BME280;43052;52.588;13.396;2022-10-15T04:29:11;100303.06;;;13.76;79.66
57192;BME280;43052;52.588;13.396;2022-10-15T04:31:37;100304.78;;;13.77;79.72
57192;BME280;43052;52.588;13.396;2022-10-15T04:34:02;100308.31;;;13.76;79.74
57192;BME280;43052;52.588;13.396;2022-10-15T04:36:28;100303.06;;;13.76;79.72
57192;BME280;43052;52.588;13.396;2022-10-15T04:38:53;100304.72;;;13.80;79.62
57192;BME280;43052;52.588;13.396;2022-10-15T04:41:18;100305.63;;;13.79;79.26
57192;BME280;43052;52.588;13.396;2022-10-15T04:43:43;100309.28;;;13.73;79.42
57192;BME280;43052;52.588;13.396;2022-10-15T04:46:09;100308.56;;;13.67;79.52
57192;BME280;43052;52.588;13.396;2022-10-15T04:48:35;100312.09;;;13.66;79.52
57192;BME280;43052;52.588;13.396;2022-10-15T04:51:08;100312.91;;;13.68;79.64
57192;BME280;43052;52.588;13.396;2022-10-15T04:53:35;100309.59;;;13.61;79.58
57192;BME280;43052;52.588;13.396;2022-10-15T04:56:02;100308.53;;;13.68;79.29
57192;BME280;43052;52.588;13.396;2022-10-15T04:58:29;100320.56;;;13.77;79.43
57192;BME280;43052;52.588;13.396;2022-10-15T05:00:58;100320.50;;;13.80;79.47
57192;BME280;43052;52.588;13.396;2022-10-15T05:03:24;100318.69;;;13.82;79.69
57192;BME280;43052;52.588;13.396;2022-10-15T05:05:49;100322.13;;;13.84;79.59
57192;BME280;43052;52.588;13.396;2022-10-15T05:08:14;100323.00;;;13.85;79.45
57192;BME280;43052;52.588;13.396;2022-10-15T05:10:40;100311.66;;;13.83;79.64
57192;BME280;43052;52.588;13.396;2022-10-15T05:13:05;100307.31;;;13.82;79.56
57192;BME280;43052;52.588;13.396;2022-10-15T05:15:30;100307.16;;;13.88;79.56
57192;BME280;43052;52.588;13.396;2022-10-15T05:17:55;100307.06;;;13.91;79.48
57192;BME280;43052;52.588;13.396;2022-10-15T05:20:20;100315.72;;;13.94;79.48
57192;BME280;43052;52.588;13.396;2022-10-15T05:22:46;100315.69;;;13.96;79.33
57192;BME280;43052;52.588;13.396;2022-10-15T05:25:11;100313.03;;;13.98;79.32
57192;BME280;43052;52.588;13.396;2022-10-15T05:27:36;100312.13;;;13.99;79.27
57192;BME280;43052;52.588;13.396;2022-10-15T05:30:02;100310.34;;;13.99;79.17
57192;BME280;43052;52.588;13.396;2022-10-15T05:32:28;100314.88;;;13.94;78.86
57192;BME280;43052;52.588;13.396;2022-10-15T05:34:53;100311.59;;;13.86;79.02
57192;BME280;43052;52.588;13.396;2022-10-15T05:37:19;100326.66;;;13.79;78.96
57192;BME280;43052;52.588;13.396;2022-10-15T05:39:44;100326.94;;;13.68;79.02
57192;BME280;43052;52.588;13.396;2022-10-15T05:42:09;100332.38;;;13.60;79.27
57192;BME280;43052;52.588;13.396;2022-10-15T05:44:34;100322.97;;;13.50;79.16
57192;BME280;43052;52.588;13.396;2022-10-15T05:47:00;100326.75;;;13.38;79.56
57192;BME280;43052;52.588;13.396;2022-10-15T05:49:25;100338.13;;;13.37;79.59
57192;BME280;43052;52.588;13.396;2022-10-15T05:51:50;100340.81;;;13.36;79.60
57192;BME280;43052;52.588;13.396;2022-10-15T05:54:15;100326.94;;;13.30;79.69
57192;BME280;43052;52.588;13.396;2022-10-15T05:56:40;100346.28;;;13.26;79.57
57192;BME280;43052;52.588;13.396;2022-10-15T05:59:06;100341.97;;;13.24;79.99
57192;BME280;43052;52.588;13.396;2022-10-15T06:01:31;100342.03;;;13.21;80.43
57192;BME280;43052;52.588;13.396;2022-10-15T06:03:56;100348.06;;;13.26;80.23
57192;BME280;43052;52.588;13.396;2022-10-15T06:06:24;100347.03;;;13.31;80.13
57192;BME280;43052;52.588;13.396;2022-10-15T06:08:50;100347.06;;;13.30;80.03
57192;BME280;43052;52.588;13.396;2022-10-15T06:11:16;100354.00;;;13.32;79.96
57192;BME280;43052;52.588;13.396;2022-10-15T06:13:42;100355.78;;;13.32;79.87
57192;BME280;43052;52.588;13.396;2022-10-15T06:16:09;100359.31;;;13.31;79.97
57192;BME280;43052;52.588;13.396;2022-10-15T06:18:35;100357.41;;;13.36;80.18
57192;BME280;43052;52.588;13.396;2022-10-15T06:21:00;100351.28;;;13.37;80.02
57192;BME280;43052;52.588;13.396;2022-10-15T06:23:26;100358.00;;;13.51;80.10
57192;BME280;43052;52.588;13.396;2022-10-15T06:25:51;100368.97;;;13.67;79.60
57192;BME280;43052;52.588;13.396;2022-10-15T06:28:16;100363.38;;;13.81;79.64
57192;BME280;43052;52.588;13.396;2022-10-15T06:30:42;100364.69;;;13.99;79.39
57192;BME280;43052;52.588;13.396;2022-10-15T06:33:08;100361.47;;;14.22;79.11
57192;BME280;43052;52.588;13.396;2022-10-15T06:35:33;100353.88;;;14.74;78.26
57192;BME280;43052;52.588;13.396;2022-10-15T06:38:03;100374.91;;;15.06;77.47
57192;BME280;43052;52.588;13.396;2022-10-15T06:40:30;100371.44;;;15.03;76.96
57192;BME280;43052;52.588;13.396;2022-10-15T06:43:07;100379.44;;;15.00;76.83
57192;BME280;43052;52.588;13.396;2022-10-15T06:45:34;100376.91;;;14.97;76.59
57192;BME280;43052;52.588;13.396;2022-10-15T06:48:01;100378.41;;;15.06;76.49
57192;BME280;43052;52.588;13.396;2022-10-15T06:50:26;100372.59;;;15.23;76.13
57192;BME280;43052;52.588;13.396;2022-10-15T06:52:51;100359.16;;;15.32;75.74
57192;BME280;43052;52.588;13.396;2022-10-15T06:55:17;100371.69;;;15.52;74.96
57192;BME280;43052;52.588;13.396;2022-10-15T06:57:42;100377.69;;;15.58;74.89
57192;BME280;43052;52.588;13.396;2022-10-15T07:00:07;100383.63;;;15.64;74.65
57192;BME280;43052;52.588;13.396;2022-10-15T07:02:34;100379.03;;;15.70;74.20
57192;BME280;43052;52.588;13.396;2022-10-15T07:05:00;100397.94;;;15.82;73.87
57192;BME280;43052;52.588;13.396;2022-10-15T07:07:25;100393.38;;;15.89;73.55
57192;BME280;43052;52.588;13.396;2022-10-15T07:09:50;100396.72;;;15.94;73.35
57192;BME280;43052;52.588;13.396;2022-10-15T07:12:18;100407.97;;;16.00;73.49
57192;BME280;43052;52.588;13.396;2022-10-15T07:14:46;100402.75;;;15.98;73.31
57192;BME280;43052;52.588;13.396;2022-10-15T07:17:11;100408.06;;;15.96;73.18
57192;BME280;43052;52.588;13.396;2022-10-15T07:19:36;100410.72;;;15.96;73.06
57192;BME280;43052;52.588;13.396;2022-10-15T07:22:01;100416.84;;;15.97;73.07
57192;BME280;43052;52.588;13.396;2022-10-15T07:24:27;100412.63;;;15.91;73.00
57192;BME280;43052;52.588;13.396;2022-10-15T07:26:52;100416.28;;;15.87;72.92
57192;BME280;43052;52.588;13.396;2022-10-15T07:29:17;100418.84;;;15.90;72.99
57192;BME280;43052;52.588;13.396;2022-10-15T07:31:42;100405.94;;;15.81;72.77
57192;BME280;43052;52.588;13.396;2022-10-15T07:34:08;100412.81;;;15.87;72.48
57192;BME280;43052;52.588;13.396;2022-10-15T07:36:33;100407.56;;;15.85;72.64
57192;BME280;43052;52.588;13.396;2022-10-15T07:38:58;100410.19;;;15.85;72.80
57192;BME280;43052;52.588;13.396;2022-10-15T07:41:23;100407.16;;;15.97;72.53
57192;BME280;43052;52.588;13.396;2022-10-15T07:43:50;100415.06;;;16.24;72.33
57192;BME280;43052;52.588;13.396;2022-10-15T07:46:16;100412.38;;;16.50;71.84
57192;BME280;43052;52.588;13.396;2022-10-15T07:48:42;100399.28;;;16.72;71.22
57192;BME280;43052;52.588;13.396;2022-10-15T07:51:09;100405.59;;;17.15;70.63
57192;BME280;43052;52.588;13.396;2022-10-15T07:53:35;100405.88;;;17.98;68.98
57192;BME280;43052;52.588;13.396;2022-10-15T07:56:05;100408.38;;;18.22;67.91
57192;BME280;43052;52.588;13.396;2022-10-15T07:58:32;100403.78;;;18.27;67.53
57192;BME280;43052;52.588;13.396;2022-10-15T08:00:59;100404.63;;;18.27;67.48
57192;BME280;43052;52.588;13.396;2022-10-15T08:03:25;100404.34;;;18.33;66.99
57192;BME280;43052;52.588;13.396;2022-10-15T08:05:50;100397.00;;;18.61;66.53
57192;BME280;43052;52.588;13.396;2022-10-15T08:08:18;100400.34;;;19.04;65.75
57192;BME280;43052;52.588;13.396;2022-10-15T08:10:43;100393.75;;;19.32;64.23
57192;BME280;43052;52.588;13.396;2022-10-15T08:13:09;100401.25;;;19.41;63.48
57192;BME280;43052;52.588;13.396;2022-10-15T08:15:37;100398.84;;;19.37;63.03
57192;BME280;43052;52.588;13.396;2022-10-15T08:18:03;100410.28;;;19.37;63.35
57192;BME280;43052;52.588;13.396;2022-10-15T08:20:28;100416.13;;;19.63;63.12
57192;BME280;43052;52.588;13.396;2022-10-15T08:22:53;100407.56;;;19.76;62.15
57192;BME280;43052;52.588;13.396;2022-10-15T08:25:19;100422.28;;;20.00;61.73
57192;BME280;43052;52.588;13.396;2022-10-15T08:27:44;100419.50;;;20.55;60.12
57192;BME280;43052;52.588;13.396;2022-10-15T08:30:09;100417.44;;;21.43;58.87
57192;BME280;43052;52.588;13.396;2022-10-15T08:32:35;100421.56;;;23.41;55.29
57192;BME280;43052;52.588;13.396;2022-10-15T08:35:00;100419.06;;;25.48;50.05
57192;BME280;43052;52.588;13.396;2022-10-15T08:37:25;100419.72;;;25.87;48.74
57192;BME280;43052;52.588;13.396;2022-10-15T08:39:51;100417.22;;;26.44;46.41
57192;BME280;43052;52.588;13.396;2022-10-15T08:42:24;100423.81;;;26.74;44.14
57192;BME280;43052;52.588;13.396;2022-10-15T08:44:56;100418.56;;;26.50;43.25
57192;BME280;43052;52.588;13.396;2022-10-15T08:47:31;100430.63;;;26.55;44.81
57192;BME280;43052;52.588;13.396;2022-10-15T08:50:02;100410.91;;;26.56;43.94
57192;BME280;43052;52.588;13.396;2022-10-15T08:52:48;100415.00;;;27.29;42.89
57192;BME280;43052;52.588;13.396;2022-10-15T08:55:16;100417.88;;;28.56;41.49
57192;BME280;43052;52.588;13.396;2022-10-15T08:57:48;100421.47;;;30.26;38.47
57192;BME280;43052;52.588;13.396;2022-10-15T09:00:22;100419.97;;;33.05;32.80
57192;BME280;43052;52.588;13.396;2022-10-15T09:02:57;100418.72;;;34.97;30.45
57192;BME280;43052;52.588;13.396;2022-10-15T09:05:49;100418.91;;;36.05;27.43
57192;BME280;43052;52.588;13.396;2022-10-15T09:08:23;100424.13;;;37.27;26.28
57192;BME280;43052;52.588;13.396;2022-10-15T09:10:59;100422.66;;;38.39;24.39
57192;BME280;43052;52.588;13.396;2022-10-15T09:13:28;100424.00;;;38.50;23.87
57192;BME280;43052;52.588;13.396;2022-10-15T09:16:00;100432.19;;;38.92;23.67
57192;BME280;43052;52.588;13.396;2022-10-15T09:18:29;100430.81;;;37.24;24.99
57192;BME280;43052;52.588;13.396;2022-10-15T09:20:57;100429.09;;;34.21;28.16
57192;BME280;43052;52.588;13.396;2022-10-15T09:23:26;100426.47;;;31.88;30.97
57192;BME280;43052;52.588;13.396;2022-10-15T09:26:16;100440.00;;;30.59;33.13
57192;BME280;43052;52.588;13.396;2022-10-15T09:31:16;100432.88;;;30.48;32.83
57192;BME280;43052;52.588;13.396;2022-10-15T09:33:49;100436.78;;;29.67;34.08
57192;BME280;43052;52.588;13.396;2022-10-15T09:36:32;100444.03;;;28.54;35.74
57192;BME280;43052;52.588;13.396;2022-10-15T09:39:07;100436.34;;;27.86;37.15
57192;BME280;43052;52.588;13.396;2022-10-15T09:44:43;100437.47;;;27.28;37.99
57192;BME280;43052;52.588;13.396;2022-10-15T09:47:28;100440.41;;;26.79;38.86
57192;BME280;43052;52.588;13.396;2022-10-15T09:49:53;100448.09;;;26.25;39.51
57192;BME280;43052;52.588;13.396;2022-10-15T09:52:25;100453.16;;;25.57;41.20
57192;BME280;43052;52.588;13.396;2022-10-15T09:57:41;100448.72;;;24.69;43.35
57192;BME280;43052;52.588;13.396;2022-10-15T10:00:11;100445.91;;;24.96;42.73
57192;BME280;43052;52.588;13.396;2022-10-15T10:02:37;100443.16;;;24.85;43.38
57192;BME280;43052;52.588;13.396;2022-10-15T10:05:26;100447.34;;;25.26;42.50
57192;BME280;43052;52.588;13.396;2022-10-15T10:10:37;100445.13;;;25.57;41.74
57192;BME280;43052;52.588;13.396;2022-10-15T10:13:08;100451.25;;;25.95;41.37
57192;BME280;43052;52.588;13.396;2022-10-15T10:15:45;100447.97;;;25.91;41.04
57192;BME280;43052;52.588;13.396;2022-10-15T10:18:23;100456.19;;;25.53;41.95
57192;BME280;43052;52.588;13.396;2022-10-15T10:20:57;100447.50;;;25.12;43.26
57192;BME280;43052;52.588;13.396;2022-10-15T10:23:36;100454.81;;;24.84;43.78
57192;BME280;43052;52.588;13.396;2022-10-15T10:26:04;100463.69;;;24.71;43.77
57192;BME280;43052;52.588;13.396;2022-10-15T10:28:33;100456.19;;;24.77;43.56
57192;BME280;43052;52.588;13.396;2022-10-15T10:31:03;100456.59;;;24.58;43.62
57192;BME280;43052;52.588;13.396;2022-10-15T10:35:58;100464.69;;;24.30;44.38
57192;BME280;43052;52.588;13.396;2022-10-15T10:38:26;100464.19;;;24.38;44.23
57192;BME280;43052;52.588;13.396;2022-10-15T10:40:59;100457.97;;;24.37;44.50
57192;BME280;43052;52.588;13.396;2022-10-15T10:43:30;100458.47;;;24.17;45.04
57192;BME280;43052;52.588;13.396;2022-10-15T10:46:15;100463.28;;;23.84;45.76
57192;BME280;43052;52.588;13.396;2022-10-15T10:48:46;100458.19;;;23.67;45.99
57192;BME280;43052;52.588;13.396;2022-10-15T10:51:15;100456.47;;;23.66;46.16
57192;BME280;43052;52.588;13.396;2022-10-15T10:54:02;100456.78;;;23.61;46.29
57192;BME280;43052;52.588;13.396;2022-10-15T10:56:37;100460.63;;;23.42;46.57
57192;BME280;43052;52.588;13.396;2022-10-15T10:59:16;100463.06;;;23.18;47.45
57192;BME280;43052;52.588;13.396;2022-10-15T11:01:43;100461.31;;;23.03;47.79
57192;BME280;43052;52.588;13.396;2022-10-15T11:04:13;100460.47;;;22.88;47.86
57192;BME280;43052;52.588;13.396;2022-10-15T11:06:49;100456.38;;;22.96;48.08
57192;BME280;43052;52.588;13.396;2022-10-15T11:29:23;100450.06;;;23.68;46.92
57192;BME280;43052;52.588;13.396;2022-10-15T11:32:13;100454.66;;;23.93;46.37
57192;BME280;43052;52.588;13.396;2022-10-15T11:37:48;100443.31;;;23.90;46.68
57192;BME280;43052;52.588;13.396;2022-10-15T11:40:43;100439.44;;;23.81;46.77
57192;BME280;43052;52.588;13.396;2022-10-15T11:44:09;100441.75;;;23.73;46.97
57192;BME280;43052;52.588;13.396;2022-10-15T11:46:25;100442.06;;;23.41;47.58
57192;BME280;43052;52.588;13.396;2022-10-15T11:49:12;100445.91;;;23.08;48.09
57192;BME280;43052;52.588;13.396;2022-10-15T11:54:38;100441.03;;;22.57;48.67
57192;BME280;43052;52.588;13.396;2022-10-15T11:57:15;100440.16;;;22.42;49.44
57192;BME280;43052;52.588;13.396;2022-10-15T11:59:47;100436.22;;;22.33;49.57
57192;BME280;43052;52.588;13.396;2022-10-15T12:02:17;100419.88;;;22.39;49.90
57192;BME280;43052;52.588;13.396;2022-10-15T12:04:50;100428.41;;;22.30;49.55
57192;BME280;43052;52.588;13.396;2022-10-15T12:07:23;100427.75;;;21.96;50.04
57192;BME280;43052;52.588;13.396;2022-10-15T12:09:54;100424.38;;;21.45;50.71
57192;BME280;43052;52.588;13.396;2022-10-15T12:12:33;100429.88;;;21.26;51.28
57192;BME280;43052;52.588;13.396;2022-10-15T12:15:19;100440.50;;;21.26;51.96
57192;BME280;43052;52.588;13.396;2022-10-15T12:17:57;100430.13;;;21.22;51.80
57192;BME280;43052;52.588;13.396;2022-10-15T12:20:26;100441.09;;;21.32;51.95
57192;BME280;43052;52.588;13.396;2022-10-15T12:22:53;100440.50;;;21.42;52.11
57192;BME280;43052;52.588;13.396;2022-10-15T12:28:02;100429.34;;;21.52;52.11
57192;BME280;43052;52.588;13.396;2022-10-15T12:30:29;100433.44;;;21.57;51.75
57192;BME280;43052;52.588;13.396;2022-10-15T12:32:59;100438.78;;;21.57;51.90
57192;BME280;43052;52.588;13.396;2022-10-15T12:35:54;100440.25;;;21.63;51.84
57192;BME280;43052;52.588;13.396;2022-10-15T12:38:24;100438.47;;;21.64;51.71
57192;BME280;43052;52.588;13.396;2022-10-15T12:40:56;100435.78;;;21.48;51.98
57192;BME280;43052;52.588;13.396;2022-10-15T12:43:22;100436.31;;;21.38;52.23
57192;BME280;43052;52.588;13.396;2022-10-15T12:45:51;100438.78;;;21.25;52.40
57192;BME280;43052;52.588;13.396;2022-10-15T12:48:26;100443.94;;;21.28;52.71
57192;BME280;43052;52.588;13.396;2022-10-15T12:53:42;100432.72;;;21.39;51.97
57192;BME280;43052;52.588;13.396;2022-10-15T13:03:42;100429.59;;;21.47;51.70
57192;BME280;43052;52.588;13.396;2022-10-15T13:06:14;100424.72;;;21.39;51.66
57192;BME280;43052;52.588;13.396;2022-10-15T13:08:46;100436.03;;;21.43;52.08
57192;BME280;43052;52.588;13.396;2022-10-15T13:11:19;100426.50;;;21.39;51.77
57192;BME280;43052;52.588;13.396;2022-10-15T13:13:48;100426.03;;;21.32;52.17
57192;BME280;43052;52.588;13.396;2022-10-15T13:16:13;100424.22;;;21.33;52.07
57192;BME280;43052;52.588;13.396;2022-10-15T13:18:40;100411.31;;;21.25;52.07
57192;BME280;43052;52.588;13.396;2022-10-15T13:21:07;100415.97;;;21.21;52.10
57192;BME280;43052;52.588;13.396;2022-10-15T13:23:33;100418.47;;;21.24;52.38
57192;BME280;43052;52.588;13.396;2022-10-15T13:26:20;100421.78;;;21.12;52.38
57192;BME280;43052;52.588;13.396;2022-10-15T13:28:48;100414.41;;;21.01;52.82
57192;BME280;43052;52.588;13.396;2022-10-15T13:31:26;100409.09;;;21.01;53.09
57192;BME280;43052;52.588;13.396;2022-10-15T13:33:57;100408.25;;;21.01;52.93
57192;BME280;43052;52.588;13.396;2022-10-15T13:36:33;100424.13;;;21.18;52.71
57192;BME280;43052;52.588;13.396;2022-10-15T13:39:03;100419.41;;;21.23;52.36
57192;BME280;43052;52.588;13.396;2022-10-15T13:41:32;100401.03;;;21.19;52.58
57192;BME280;43052;52.588;13.396;2022-10-15T13:43:58;100404.22;;;21.09;52.04
57192;BME280;43052;52.588;13.396;2022-10-15T13:46:27;100419.75;;;21.17;52.64
57192;BME280;43052;52.588;13.396;2022-10-15T13:48:58;100417.59;;;21.08;52.99
57192;BME280;43052;52.588;13.396;2022-10-15T13:51:31;100420.22;;;20.92;53.32